createdAt,value
2023-05-13T00:02:42.030Z,12.41
2023-05-13T00:06:37.182Z,12.33
2023-05-13T00:10:36.568Z,12.26
2023-05-13T00:14:31.947Z,12.20
2023-05-13T00:18:31.427Z,12.21
2023-05-13T00:22:27.078Z,12.22
2023-05-13T00:26:26.920Z,12.18
2023-05-13T00:30:22.080Z,12.10
2023-05-13T00:34:21.743Z,11.98
2023-05-13T00:38:17.089Z,11.91
2023-05-13T00:42:16.588Z,11.89
2023-05-13T00:46:12.184Z,11.92
2023-05-13T00:50:11.658Z,11.87
2023-05-13T00:54:07.030Z,11.45
2023-05-13T00:58:06.979Z,11.42
2023-05-13T01:02:02.294Z,11.44
2023-05-13T01:06:01.581Z,11.47
2023-05-13T01:09:57.050Z,11.38
2023-05-13T01:13:56.413Z,11.31
2023-05-13T01:17:52.171Z,11.26
2023-05-13T01:21:51.165Z,11.19
2023-05-13T01:25:47.212Z,11.06
2023-05-13T01:29:46.699Z,10.98
2023-05-13T01:33:43.202Z,10.98
2023-05-13T01:37:41.094Z,11.00
2023-05-13T01:41:40.228Z,11.04
2023-05-13T01:45:35.992Z,11.02
2023-05-13T01:49:35.451Z,11.01
2023-05-13T01:53:31.450Z,10.94
2023-05-13T01:57:30.774Z,10.89
2023-05-13T02:01:26.517Z,10.82
2023-05-13T02:05:25.848Z,10.71
2023-05-13T02:09:22.116Z,10.71
2023-05-13T02:13:21.700Z,10.71
2023-05-13T02:17:17.467Z,10.73
2023-05-13T02:21:16.743Z,10.80
2023-05-13T02:25:10.558Z,10.88
2023-05-13T02:29:07.795Z,10.86
2023-05-13T02:33:07.835Z,10.85
2023-05-13T02:37:07.245Z,10.98
2023-05-13T02:41:05.110Z,11.03
2023-05-13T02:45:04.192Z,11.24
2023-05-13T02:49:00.256Z,11.18
2023-05-13T02:52:59.460Z,11.24
2023-05-13T02:56:52.470Z,11.38
2023-05-13T03:00:54.216Z,11.51
2023-05-13T03:04:48.491Z,11.56
2023-05-13T03:08:33.662Z,11.53
2023-05-13T03:12:18.621Z,11.54
2023-05-13T03:16:03.687Z,11.66
2023-05-13T03:19:54.823Z,11.74
2023-05-13T03:23:46.337Z,11.93
2023-05-13T03:27:38.142Z,12.07
2023-05-13T03:31:37.822Z,12.46
2023-05-13T03:35:34.524Z,12.85
2023-05-13T03:39:34.670Z,13.29
2023-05-13T03:43:30.463Z,13.73
2023-05-13T03:47:32.600Z,14.34
2023-05-13T03:51:30.289Z,14.81
2023-05-13T03:55:29.597Z,15.27
2023-05-13T03:59:24.539Z,15.77
2023-05-13T04:03:10.049Z,16.12
2023-05-13T04:06:54.993Z,16.46
2023-05-13T04:10:40.077Z,16.82
2023-05-13T04:14:24.821Z,17.07
2023-05-13T04:18:09.810Z,17.34
2023-05-13T04:21:54.860Z,17.50
2023-05-13T04:25:48.280Z,17.82
2023-05-13T04:29:39.579Z,18.22
2023-05-13T04:33:39.178Z,18.40
2023-05-13T04:37:35.466Z,18.63
2023-05-13T04:41:38.156Z,18.84
2023-05-13T04:45:33.543Z,18.93
2023-05-13T04:49:33.566Z,19.16
2023-05-13T04:53:29.423Z,19.39
2023-05-13T04:57:32.128Z,19.62
2023-05-13T05:01:25.519Z,19.61
2023-05-13T05:05:10.659Z,19.71
2023-05-13T05:08:56.330Z,19.87
2023-05-13T05:12:42.733Z,20.09
2023-05-13T05:16:27.956Z,20.43
2023-05-13T05:20:23.000Z,20.81
2023-05-13T05:24:15.228Z,21.02
2023-05-13T05:28:10.453Z,21.16
2023-05-13T05:32:12.832Z,21.47
2023-05-13T05:36:08.968Z,21.88
2023-05-13T05:40:08.796Z,22.20
2023-05-13T05:44:07.480Z,22.48
2023-05-13T05:48:07.159Z,22.81
2023-05-13T05:52:03.965Z,23.08
2023-05-13T05:56:03.891Z,23.17
2023-05-13T05:59:59.589Z,23.17
2023-05-13T06:03:58.680Z,23.28
2023-05-13T06:07:54.835Z,23.23
2023-05-13T06:11:54.118Z,23.33
2023-05-13T06:15:49.805Z,23.56
2023-05-13T06:19:49.301Z,23.64
2023-05-13T06:23:44.692Z,23.77
2023-05-13T06:27:46.114Z,23.55
2023-05-13T06:31:41.932Z,23.22
2023-05-13T06:35:41.087Z,23.53
2023-05-13T06:39:37.560Z,23.56
2023-05-13T06:43:37.403Z,23.59
2023-05-13T06:47:42.753Z,23.77
2023-05-13T06:51:43.980Z,23.74
2023-05-13T06:55:39.870Z,23.73
2023-05-13T06:59:39.349Z,23.96
2023-05-13T07:03:34.907Z,24.09
2023-05-13T07:07:34.398Z,24.37
2023-05-13T07:11:29.697Z,24.74
2023-05-13T07:15:28.961Z,25.14
2023-05-13T07:19:24.800Z,25.41
2023-05-13T07:23:24.272Z,25.74
2023-05-13T07:27:20.069Z,26.22
2023-05-13T07:31:19.604Z,26.91
2023-05-13T07:35:14.951Z,27.53
2023-05-13T07:39:14.013Z,27.80
2023-05-13T07:43:09.673Z,28.02
2023-05-13T07:47:08.653Z,28.52
2023-05-13T07:51:03.876Z,28.76
2023-05-13T07:55:03.209Z,28.67
2023-05-13T07:58:58.832Z,28.91
2023-05-13T08:02:58.453Z,29.12
2023-05-13T08:06:53.896Z,29.28
2023-05-13T08:10:53.041Z,29.30
2023-05-13T08:14:49.140Z,29.36
2023-05-13T08:18:48.347Z,29.76
2023-05-13T08:22:43.715Z,29.98
2023-05-13T08:26:43.226Z,30.26
2023-05-13T08:30:36.341Z,30.47
2023-05-13T08:34:12.202Z,30.72
2023-05-13T08:38:15.404Z,30.85
2023-05-13T08:42:10.956Z,30.79
2023-05-13T08:46:10.527Z,30.85
2023-05-13T08:50:06.087Z,31.10
2023-05-13T08:54:05.809Z,31.30
2023-05-13T08:57:58.931Z,31.35
2023-05-13T09:01:34.927Z,31.01
2023-05-13T09:05:32.188Z,30.85
2023-05-13T09:09:27.837Z,30.80
2023-05-13T09:13:26.906Z,30.84
2023-05-13T09:17:22.964Z,30.89
2023-05-13T09:21:22.076Z,30.71
2023-05-13T09:25:18.248Z,30.46
2023-05-13T09:29:15.376Z,30.25
2023-05-13T09:33:11.057Z,30.21
2023-05-13T09:37:10.457Z,30.13
2023-05-13T09:41:05.963Z,29.86
2023-05-13T09:45:05.617Z,29.68
2023-05-13T09:49:00.959Z,29.49
2023-05-13T09:53:00.060Z,29.55
2023-05-13T09:56:55.188Z,29.43
2023-05-13T10:00:52.377Z,29.43
2023-05-13T10:04:52.609Z,29.27
2023-05-13T10:08:52.209Z,29.49
2023-05-13T10:12:48.362Z,29.65
2023-05-13T10:16:47.671Z,29.70
2023-05-13T10:20:43.114Z,29.77
2023-05-13T10:24:41.001Z,29.66
2023-05-13T10:28:34.263Z,29.54
2023-05-13T10:32:37.954Z,29.74
2023-05-13T10:36:33.138Z,29.67
2023-05-13T10:40:32.694Z,29.63
2023-05-13T10:44:28.166Z,29.79
2023-05-13T10:48:27.811Z,30.15
2023-05-13T10:52:23.487Z,30.51
2023-05-13T10:56:20.405Z,30.97
2023-05-13T11:00:21.164Z,31.26
2023-05-13T11:04:20.843Z,31.46
2023-05-13T11:08:18.897Z,31.63
2023-05-13T11:12:10.093Z,31.64
2023-05-13T11:15:58.838Z,31.74
2023-05-13T11:19:47.370Z,31.98
2023-05-13T11:23:33.980Z,31.95
2023-05-13T11:27:20.372Z,32.10
2023-05-13T11:31:09.282Z,32.08
2023-05-13T11:34:55.798Z,32.15
2023-05-13T11:38:40.633Z,32.65
2023-05-13T11:42:25.620Z,33.01
2023-05-13T11:46:10.958Z,33.28
2023-05-13T11:49:56.088Z,33.75
2023-05-13T11:53:41.201Z,34.16
2023-05-13T11:57:26.299Z,34.37
2023-05-13T12:01:11.548Z,33.99
2023-05-13T12:04:56.798Z,33.84
2023-05-13T12:08:47.870Z,33.82
2023-05-13T12:12:39.334Z,33.66
2023-05-13T12:16:31.506Z,33.30
2023-05-13T12:20:30.697Z,32.94
2023-05-13T12:24:26.318Z,32.89
2023-05-13T12:28:25.862Z,32.82
2023-05-13T12:32:21.514Z,32.73
2023-05-13T12:36:21.028Z,32.82
2023-05-13T12:40:16.539Z,33.15
2023-05-13T12:44:15.718Z,33.35
2023-05-13T12:48:11.360Z,33.75
2023-05-13T12:51:56.282Z,33.73
2023-05-13T12:55:41.233Z,34.01
2023-05-13T12:59:26.303Z,34.50
2023-05-13T13:03:11.838Z,34.77
2023-05-13T13:06:57.092Z,35.00
2023-05-13T13:10:42.166Z,34.85
2023-05-13T13:14:27.280Z,35.07
2023-05-13T13:18:12.574Z,35.54
2023-05-13T13:22:03.765Z,35.65
2023-05-13T13:25:55.168Z,35.71
2023-05-13T13:29:56.398Z,35.71
2023-05-13T13:33:55.913Z,35.73
2023-05-13T13:37:51.331Z,36.00
2023-05-13T13:41:53.545Z,36.42
2023-05-13T13:45:49.841Z,36.70
2023-05-13T13:49:48.911Z,36.64
2023-05-13T13:53:44.378Z,36.27
2023-05-13T13:57:43.729Z,36.14
2023-05-13T14:01:40.496Z,36.27
2023-05-13T14:05:40.012Z,36.44
2023-05-13T14:09:35.329Z,36.31
2023-05-13T14:13:37.669Z,36.07
2023-05-13T14:17:33.762Z,35.78
2023-05-13T14:21:32.807Z,35.57
2023-05-13T14:25:31.482Z,35.04
2023-05-13T14:29:30.756Z,34.90
2023-05-13T14:33:26.428Z,33.67
2023-05-13T14:37:25.447Z,33.20
2023-05-13T14:41:20.406Z,32.80
2023-05-13T14:45:19.592Z,32.14
2023-05-13T14:49:16.005Z,30.63
2023-05-13T14:53:15.316Z,30.88
2023-05-13T14:57:10.688Z,30.50
2023-05-13T15:01:10.244Z,30.41
2023-05-13T15:05:14.461Z,30.23
2023-05-13T15:09:12.518Z,30.03
2023-05-13T15:13:14.238Z,29.87
2023-05-13T15:17:12.883Z,29.77
2023-05-13T15:21:15.351Z,29.44
2023-05-13T15:25:13.421Z,29.31
2023-05-13T15:29:14.840Z,29.22
2023-05-13T15:33:13.463Z,29.09
2023-05-13T15:37:14.960Z,28.96
2023-05-13T15:41:13.603Z,28.81
2023-05-13T15:45:14.966Z,28.62
2023-05-13T15:49:13.618Z,28.67
2023-05-13T15:53:15.051Z,28.72
2023-05-13T15:57:13.391Z,28.66
2023-05-13T16:01:14.959Z,28.57
2023-05-13T16:05:13.513Z,28.52
2023-05-13T16:09:14.959Z,28.37
2023-05-13T16:13:13.678Z,28.20
2023-05-13T16:17:14.992Z,27.99
2023-05-13T16:21:13.450Z,27.84
2023-05-13T16:25:15.093Z,27.70
2023-05-13T16:29:13.521Z,27.50
2023-05-13T16:33:15.116Z,27.39
2023-05-13T16:37:13.546Z,27.25
2023-05-13T16:41:14.784Z,27.01
2023-05-13T16:45:13.650Z,26.86
2023-05-13T16:49:15.023Z,26.62
2023-05-13T16:53:13.579Z,26.15
2023-05-13T16:57:15.093Z,26.31
2023-05-13T17:01:13.613Z,26.22
2023-05-13T17:05:15.045Z,25.98
2023-05-13T17:09:10.827Z,25.61
2023-05-13T17:13:10.243Z,25.38
2023-05-13T17:17:05.866Z,25.03
2023-05-13T17:21:05.221Z,24.55
2023-05-13T17:25:00.915Z,23.54
2023-05-13T17:29:00.386Z,23.27
2023-05-13T17:32:55.819Z,23.14
2023-05-13T17:36:54.803Z,22.71
2023-05-13T17:40:50.010Z,22.39
2023-05-13T17:44:49.438Z,22.00
2023-05-13T17:48:44.993Z,21.86
2023-05-13T17:52:44.866Z,21.66
2023-05-13T17:56:40.927Z,21.52
2023-05-13T18:00:39.863Z,21.74
2023-05-13T18:04:38.128Z,21.47
2023-05-13T18:08:34.026Z,21.15
2023-05-13T18:12:33.656Z,20.92
2023-05-13T18:16:29.160Z,20.74
2023-05-13T18:20:28.389Z,20.65
2023-05-13T18:24:23.908Z,20.60
2023-05-13T18:28:23.087Z,20.59
2023-05-13T18:32:18.953Z,20.58
2023-05-13T18:36:18.429Z,20.56
2023-05-13T18:40:13.971Z,20.39
2023-05-13T18:44:13.349Z,20.30
2023-05-13T18:48:09.048Z,20.34
2023-05-13T18:52:08.517Z,20.23
2023-05-13T18:56:03.955Z,20.22
2023-05-13T19:00:03.049Z,20.16
2023-05-13T19:03:59.082Z,20.15
2023-05-13T19:07:58.643Z,20.08
2023-05-13T19:11:53.866Z,20.07
2023-05-13T19:15:52.762Z,20.01
2023-05-13T19:19:48.181Z,19.90
2023-05-13T19:23:47.742Z,20.00
2023-05-13T19:27:43.307Z,19.96
2023-05-13T19:31:42.404Z,19.98
2023-05-13T19:35:38.049Z,19.93
2023-05-13T19:39:37.070Z,19.95
2023-05-13T19:43:33.174Z,19.87
2023-05-13T19:47:33.095Z,19.88
2023-05-13T19:51:28.920Z,19.93
2023-05-13T19:55:28.099Z,19.85
2023-05-13T19:59:23.228Z,19.71
2023-05-13T20:03:22.947Z,19.73
2023-05-13T20:07:18.150Z,19.75
2023-05-13T20:11:17.496Z,19.80
2023-05-13T20:15:12.930Z,19.79
2023-05-13T20:19:12.139Z,19.79
2023-05-13T20:23:08.323Z,19.83
2023-05-13T20:27:07.956Z,19.80
2023-05-13T20:31:03.056Z,19.78
2023-05-13T20:35:02.204Z,19.74
2023-05-13T20:38:58.101Z,19.75
2023-05-13T20:42:57.801Z,19.79
2023-05-13T20:46:53.125Z,19.58
2023-05-13T20:50:52.231Z,19.70
2023-05-13T20:54:48.282Z,19.17
2023-05-13T20:58:47.876Z,19.12
2023-05-13T21:02:43.090Z,19.74
2023-05-13T21:06:42.098Z,19.49
2023-05-13T21:10:37.061Z,19.08
2023-05-13T21:14:36.173Z,19.04
2023-05-13T21:18:32.029Z,19.40
2023-05-13T21:22:31.481Z,19.50
2023-05-13T21:26:27.448Z,19.38
2023-05-13T21:30:26.801Z,19.21
2023-05-13T21:34:23.694Z,19.32
2023-05-13T21:38:22.936Z,19.47
2023-05-13T21:42:19.789Z,19.41
2023-05-13T21:46:20.210Z,19.33
2023-05-13T21:50:16.475Z,19.29
2023-05-13T21:54:16.069Z,19.30
2023-05-13T21:58:13.956Z,19.44
2023-05-13T22:02:14.216Z,19.48
2023-05-13T22:06:11.089Z,19.43
2023-05-13T22:10:11.145Z,19.47
2023-05-13T22:14:08.081Z,19.56
2023-05-13T22:18:08.199Z,19.62
2023-05-13T22:22:05.032Z,19.54
2023-05-13T22:26:05.176Z,19.44
2023-05-13T22:30:01.958Z,19.53
2023-05-13T22:34:01.312Z,19.36
2023-05-13T22:37:58.324Z,19.23
2023-05-13T22:41:57.551Z,19.02
2023-05-13T22:45:55.357Z,19.10
2023-05-13T22:49:55.116Z,19.12
2023-05-13T22:53:52.446Z,19.20
2023-05-13T22:57:52.254Z,19.11
2023-05-13T23:01:50.246Z,19.05
2023-05-13T23:05:49.311Z,18.99
2023-05-13T23:09:46.467Z,18.88
2023-05-13T23:13:46.117Z,18.73
2023-05-13T23:17:43.339Z,18.77
2023-05-13T23:21:42.981Z,18.69
2023-05-13T23:25:40.812Z,18.72
2023-05-13T23:29:40.324Z,18.74
2023-05-13T23:33:39.074Z,18.70
2023-05-13T23:37:39.169Z,18.58
2023-05-13T23:41:36.635Z,18.66
2023-05-13T23:45:36.295Z,18.58
2023-05-13T23:49:33.393Z,18.68
2023-05-13T23:53:33.277Z,18.50
2023-05-13T23:57:30.408Z,18.48
